sensor_id;sensor_type;location;lat;lon;timestamp;P1;durP1;ratioP1;P2;durP2;ratioP2
29162;SDS011;20331;53.144;8.208;2024-01-07T00:02:14;10.55;;;7.75;;
29162;SDS011;20331;53.144;8.208;2024-01-07T00:07:35;12.13;;;7.22;;
29162;SDS011;20331;53.144;8.208;2024-01-07T00:12:57;11.32;;;6.72;;
29162;SDS011;20331;53.144;8.208;2024-01-07T00:18:19;13.05;;;7.20;;
29162;SDS011;20331;53.144;8.208;2024-01-07T00:23:41;11.15;;;6.93;;
29162;SDS011;20331;53.144;8.208;2024-01-07T00:29:02;11.85;;;7.38;;
29162;SDS011;20331;53.144;8.208;2024-01-07T00:34:24;11.55;;;6.85;;
29162;SDS011;20331;53.144;8.208;2024-01-07T00:39:46;10.25;;;7.00;;
29162;SDS011;20331;53.144;8.208;2024-01-07T00:45:08;16.33;;;7.65;;
29162;SDS011;20331;53.144;8.208;2024-01-07T00:50:30;11.52;;;6.97;;
29162;SDS011;20331;53.144;8.208;2024-01-07T00:55:52;8.45;;;5.93;;
29162;SDS011;20331;53.144;8.208;2024-01-07T01:01:13;10.07;;;5.40;;
29162;SDS011;20331;53.144;8.208;2024-01-07T01:06:35;9.13;;;6.38;;
29162;SDS011;20331;53.144;8.208;2024-01-07T01:11:57;9.45;;;6.25;;
29162;SDS011;20331;53.144;8.208;2024-01-07T01:17:18;8.40;;;6.13;;
29162;SDS011;20331;53.144;8.208;2024-01-07T01:22:40;10.20;;;6.22;;
29162;SDS011;20331;53.144;8.208;2024-01-07T01:28:02;8.52;;;5.93;;
29162;SDS011;20331;53.144;8.208;2024-01-07T01:33:25;14.32;;;6.35;;
29162;SDS011;20331;53.144;8.208;2024-01-07T01:38:47;9.38;;;5.53;;
29162;SDS011;20331;53.144;8.208;2024-01-07T01:44:10;9.32;;;5.45;;
29162;SDS011;20331;53.144;8.208;2024-01-07T01:49:31;8.95;;;5.38;;
29162;SDS011;20331;53.144;8.208;2024-01-07T01:54:53;8.35;;;5.40;;
29162;SDS011;20331;53.144;8.208;2024-01-07T02:00:16;9.77;;;4.75;;
29162;SDS011;20331;53.144;8.208;2024-01-07T02:05:38;7.45;;;3.83;;
29162;SDS011;20331;53.144;8.208;2024-01-07T02:11:13;10.65;;;4.38;;
29162;SDS011;20331;53.144;8.208;2024-01-07T02:16:41;6.25;;;4.10;;
29162;SDS011;20331;53.144;8.208;2024-01-07T02:22:03;5.10;;;3.30;;
29162;SDS011;20331;53.144;8.208;2024-01-07T02:27:25;4.90;;;3.15;;
29162;SDS011;20331;53.144;8.208;2024-01-07T02:32:46;4.60;;;3.30;;
29162;SDS011;20331;53.144;8.208;2024-01-07T02:38:09;5.80;;;3.50;;
29162;SDS011;20331;53.144;8.208;2024-01-07T02:43:30;4.78;;;3.13;;
29162;SDS011;20331;53.144;8.208;2024-01-07T02:48:52;10.70;;;3.17;;
29162;SDS011;20331;53.144;8.208;2024-01-07T02:54:14;5.47;;;3.05;;
29162;SDS011;20331;53.144;8.208;2024-01-07T02:59:36;4.38;;;2.90;;
29162;SDS011;20331;53.144;8.208;2024-01-07T03:04:58;6.75;;;3.85;;
29162;SDS011;20331;53.144;8.208;2024-01-07T03:10:19;5.60;;;3.78;;
29162;SDS011;20331;53.144;8.208;2024-01-07T03:15:41;6.50;;;3.70;;
29162;SDS011;20331;53.144;8.208;2024-01-07T03:21:03;9.80;;;4.55;;
29162;SDS011;20331;53.144;8.208;2024-01-07T03:26:25;7.00;;;4.05;;
29162;SDS011;20331;53.144;8.208;2024-01-07T03:31:51;5.50;;;3.95;;
29162;SDS011;20331;53.144;8.208;2024-01-07T03:37:14;8.93;;;3.33;;
29162;SDS011;20331;53.144;8.208;2024-01-07T03:42:35;5.22;;;3.38;;
29162;SDS011;20331;53.144;8.208;2024-01-07T03:47:57;6.85;;;3.08;;
29162;SDS011;20331;53.144;8.208;2024-01-07T03:53:19;7.43;;;3.05;;
29162;SDS011;20331;53.144;8.208;2024-01-07T03:58:41;4.78;;;2.67;;
29162;SDS011;20331;53.144;8.208;2024-01-07T04:04:02;3.95;;;2.20;;
29162;SDS011;20331;53.144;8.208;2024-01-07T04:09:24;3.70;;;2.10;;
29162;SDS011;20331;53.144;8.208;2024-01-07T04:14:46;3.70;;;2.08;;
29162;SDS011;20331;53.144;8.208;2024-01-07T04:20:07;2.53;;;1.90;;
29162;SDS011;20331;53.144;8.208;2024-01-07T04:25:29;4.63;;;2.40;;
29162;SDS011;20331;53.144;8.208;2024-01-07T04:30:51;4.88;;;1.95;;
29162;SDS011;20331;53.144;8.208;2024-01-07T04:36:13;3.17;;;1.90;;
29162;SDS011;20331;53.144;8.208;2024-01-07T04:41:34;5.03;;;2.10;;
29162;SDS011;20331;53.144;8.208;2024-01-07T04:46:56;3.80;;;1.77;;
29162;SDS011;20331;53.144;8.208;2024-01-07T04:52:18;4.30;;;2.03;;
29162;SDS011;20331;53.144;8.208;2024-01-07T04:57:39;3.97;;;1.73;;
29162;SDS011;20331;53.144;8.208;2024-01-07T05:03:01;2.97;;;1.60;;
29162;SDS011;20331;53.144;8.208;2024-01-07T05:08:23;3.08;;;1.60;;
29162;SDS011;20331;53.144;8.208;2024-01-07T05:13:47;4.60;;;1.67;;
29162;SDS011;20331;53.144;8.208;2024-01-07T05:19:08;2.83;;;1.50;;
29162;SDS011;20331;53.144;8.208;2024-01-07T05:24:30;2.28;;;1.38;;
29162;SDS011;20331;53.144;8.208;2024-01-07T05:29:55;4.32;;;1.73;;
29162;SDS011;20331;53.144;8.208;2024-01-07T05:35:16;2.58;;;1.80;;
29162;SDS011;20331;53.144;8.208;2024-01-07T05:40:38;2.90;;;1.77;;
29162;SDS011;20331;53.144;8.208;2024-01-07T05:46:00;3.78;;;1.70;;
29162;SDS011;20331;53.144;8.208;2024-01-07T05:51:22;3.40;;;1.77;;
29162;SDS011;20331;53.144;8.208;2024-01-07T05:56:44;2.80;;;1.70;;
29162;SDS011;20331;53.144;8.208;2024-01-07T06:02:05;3.10;;;1.75;;
29162;SDS011;20331;53.144;8.208;2024-01-07T06:07:27;2.80;;;1.80;;
29162;SDS011;20331;53.144;8.208;2024-01-07T06:12:49;2.78;;;1.70;;
29162;SDS011;20331;53.144;8.208;2024-01-07T06:18:10;3.10;;;1.73;;
29162;SDS011;20331;53.144;8.208;2024-01-07T06:23:32;2.88;;;1.60;;
29162;SDS011;20331;53.144;8.208;2024-01-07T06:28:54;3.70;;;1.70;;
29162;SDS011;20331;53.144;8.208;2024-01-07T06:34:16;3.95;;;1.80;;
29162;SDS011;20331;53.144;8.208;2024-01-07T06:39:38;2.25;;;1.50;;
29162;SDS011;20331;53.144;8.208;2024-01-07T06:45:00;5.75;;;1.70;;
29162;SDS011;20331;53.144;8.208;2024-01-07T06:50:21;5.05;;;2.17;;
29162;SDS011;20331;53.144;8.208;2024-01-07T06:55:43;3.83;;;1.63;;
29162;SDS011;20331;53.144;8.208;2024-01-07T07:01:06;3.85;;;1.70;;
29162;SDS011;20331;53.144;8.208;2024-01-07T07:06:29;3.83;;;1.58;;
29162;SDS011;20331;53.144;8.208;2024-01-07T07:11:50;4.60;;;1.92;;
29162;SDS011;20331;53.144;8.208;2024-01-07T07:17:12;3.47;;;1.80;;
29162;SDS011;20331;53.144;8.208;2024-01-07T07:22:35;3.85;;;1.58;;
29162;SDS011;20331;53.144;8.208;2024-01-07T07:27:56;7.10;;;2.08;;
29162;SDS011;20331;53.144;8.208;2024-01-07T07:33:18;2.78;;;1.80;;
29162;SDS011;20331;53.144;8.208;2024-01-07T07:38:40;3.38;;;1.70;;
29162;SDS011;20331;53.144;8.208;2024-01-07T07:44:02;2.92;;;1.38;;
29162;SDS011;20331;53.144;8.208;2024-01-07T07:49:24;5.53;;;1.42;;
29162;SDS011;20331;53.144;8.208;2024-01-07T07:54:49;2.95;;;1.50;;
29162;SDS011;20331;53.144;8.208;2024-01-07T08:00:10;2.10;;;1.30;;
29162;SDS011;20331;53.144;8.208;2024-01-07T08:05:36;6.32;;;1.70;;
29162;SDS011;20331;53.144;8.208;2024-01-07T08:10:57;4.13;;;1.85;;
29162;SDS011;20331;53.144;8.208;2024-01-07T08:16:22;3.90;;;1.83;;
29162;SDS011;20331;53.144;8.208;2024-01-07T08:21:43;2.78;;;1.85;;
29162;SDS011;20331;53.144;8.208;2024-01-07T08:27:05;3.47;;;1.77;;
29162;SDS011;20331;53.144;8.208;2024-01-07T08:32:27;3.42;;;1.85;;
29162;SDS011;20331;53.144;8.208;2024-01-07T08:37:48;2.58;;;1.63;;
29162;SDS011;20331;53.144;8.208;2024-01-07T08:43:10;6.40;;;1.75;;
29162;SDS011;20331;53.144;8.208;2024-01-07T08:48:32;3.35;;;1.70;;
29162;SDS011;20331;53.144;8.208;2024-01-07T08:53:54;5.13;;;1.85;;
29162;SDS011;20331;53.144;8.208;2024-01-07T08:59:20;3.60;;;1.92;;
29162;SDS011;20331;53.144;8.208;2024-01-07T09:04:45;4.00;;;1.80;;
29162;SDS011;20331;53.144;8.208;2024-01-07T09:10:07;3.67;;;1.65;;
29162;SDS011;20331;53.144;8.208;2024-01-07T09:15:32;4.90;;;2.13;;
29162;SDS011;20331;53.144;8.208;2024-01-07T09:20:54;5.53;;;2.25;;
29162;SDS011;20331;53.144;8.208;2024-01-07T09:26:16;5.28;;;2.35;;
29162;SDS011;20331;53.144;8.208;2024-01-07T09:31:37;4.20;;;2.28;;
29162;SDS011;20331;53.144;8.208;2024-01-07T09:36:59;4.82;;;2.40;;
29162;SDS011;20331;53.144;8.208;2024-01-07T09:42:21;7.53;;;2.58;;
29162;SDS011;20331;53.144;8.208;2024-01-07T09:47:43;10.23;;;3.35;;
29162;SDS011;20331;53.144;8.208;2024-01-07T09:53:06;9.00;;;3.80;;
29162;SDS011;20331;53.144;8.208;2024-01-07T09:58:28;8.65;;;3.78;;
29162;SDS011;20331;53.144;8.208;2024-01-07T10:03:50;8.40;;;3.33;;
29162;SDS011;20331;53.144;8.208;2024-01-07T10:09:12;9.02;;;3.92;;
29162;SDS011;20331;53.144;8.208;2024-01-07T10:14:34;6.20;;;4.30;;
29162;SDS011;20331;53.144;8.208;2024-01-07T10:19:56;6.95;;;4.15;;
29162;SDS011;20331;53.144;8.208;2024-01-07T10:25:19;5.47;;;3.95;;
29162;SDS011;20331;53.144;8.208;2024-01-07T10:30:40;11.80;;;4.45;;
29162;SDS011;20331;53.144;8.208;2024-01-07T10:36:09;13.60;;;4.72;;
29162;SDS011;20331;53.144;8.208;2024-01-07T10:41:32;7.90;;;4.18;;
29162;SDS011;20331;53.144;8.208;2024-01-07T10:46:58;8.88;;;4.55;;
29162;SDS011;20331;53.144;8.208;2024-01-07T10:52:21;6.90;;;3.85;;
29162;SDS011;20331;53.144;8.208;2024-01-07T10:57:45;8.35;;;4.03;;
29162;SDS011;20331;53.144;8.208;2024-01-07T11:03:10;9.85;;;4.28;;
29162;SDS011;20331;53.144;8.208;2024-01-07T11:08:37;8.93;;;4.57;;
29162;SDS011;20331;53.144;8.208;2024-01-07T11:14:04;9.45;;;3.90;;
29162;SDS011;20331;53.144;8.208;2024-01-07T11:19:26;10.43;;;4.22;;
29162;SDS011;20331;53.144;8.208;2024-01-07T11:24:48;10.10;;;4.40;;
29162;SDS011;20331;53.144;8.208;2024-01-07T11:30:19;12.25;;;4.03;;
29162;SDS011;20331;53.144;8.208;2024-01-07T11:35:57;10.10;;;4.63;;
29162;SDS011;20331;53.144;8.208;2024-01-07T11:41:21;11.00;;;4.78;;
29162;SDS011;20331;53.144;8.208;2024-01-07T11:46:43;8.73;;;4.68;;
29162;SDS011;20331;53.144;8.208;2024-01-07T11:52:06;7.50;;;4.80;;
29162;SDS011;20331;53.144;8.208;2024-01-07T11:57:28;9.13;;;4.05;;
29162;SDS011;20331;53.144;8.208;2024-01-07T12:02:49;7.95;;;4.15;;
29162;SDS011;20331;53.144;8.208;2024-01-07T12:08:11;12.60;;;4.40;;
29162;SDS011;20331;53.144;8.208;2024-01-07T12:13:33;10.60;;;4.28;;
29162;SDS011;20331;53.144;8.208;2024-01-07T12:18:55;5.38;;;3.75;;
29162;SDS011;20331;53.144;8.208;2024-01-07T12:24:16;6.68;;;4.05;;
29162;SDS011;20331;53.144;8.208;2024-01-07T12:29:38;9.18;;;4.20;;
29162;SDS011;20331;53.144;8.208;2024-01-07T12:35:01;6.82;;;4.38;;
29162;SDS011;20331;53.144;8.208;2024-01-07T12:40:23;9.20;;;4.30;;
29162;SDS011;20331;53.144;8.208;2024-01-07T12:45:49;8.05;;;4.32;;
29162;SDS011;20331;53.144;8.208;2024-01-07T12:51:11;11.25;;;4.88;;
29162;SDS011;20331;53.144;8.208;2024-01-07T12:56:33;12.18;;;5.20;;
29162;SDS011;20331;53.144;8.208;2024-01-07T13:01:55;7.90;;;4.50;;
29162;SDS011;20331;53.144;8.208;2024-01-07T13:07:17;8.60;;;5.10;;
29162;SDS011;20331;53.144;8.208;2024-01-07T13:12:39;10.13;;;5.07;;
29162;SDS011;20331;53.144;8.208;2024-01-07T13:18:10;9.40;;;4.32;;
29162;SDS011;20331;53.144;8.208;2024-01-07T13:23:35;9.03;;;4.83;;
29162;SDS011;20331;53.144;8.208;2024-01-07T13:28:57;7.80;;;4.88;;
29162;SDS011;20331;53.144;8.208;2024-01-07T13:34:20;8.90;;;4.70;;
29162;SDS011;20331;53.144;8.208;2024-01-07T13:39:42;8.73;;;4.90;;
29162;SDS011;20331;53.144;8.208;2024-01-07T13:45:04;7.85;;;4.70;;
29162;SDS011;20331;53.144;8.208;2024-01-07T13:50:26;6.70;;;4.70;;
29162;SDS011;20331;53.144;8.208;2024-01-07T13:55:48;7.75;;;4.55;;
29162;SDS011;20331;53.144;8.208;2024-01-07T14:01:10;9.80;;;4.22;;
29162;SDS011;20331;53.144;8.208;2024-01-07T14:06:32;8.82;;;4.60;;
29162;SDS011;20331;53.144;8.208;2024-01-07T14:11:54;6.35;;;4.13;;
29162;SDS011;20331;53.144;8.208;2024-01-07T14:17:16;8.05;;;4.93;;
29162;SDS011;20331;53.144;8.208;2024-01-07T14:22:38;7.97;;;4.70;;
29162;SDS011;20331;53.144;8.208;2024-01-07T14:28:00;7.38;;;4.85;;
29162;SDS011;20331;53.144;8.208;2024-01-07T14:33:21;8.43;;;4.55;;
29162;SDS011;20331;53.144;8.208;2024-01-07T14:38:44;6.30;;;4.40;;
29162;SDS011;20331;53.144;8.208;2024-01-07T14:44:07;8.48;;;4.30;;
29162;SDS011;20331;53.144;8.208;2024-01-07T14:49:33;6.38;;;3.67;;
29162;SDS011;20331;53.144;8.208;2024-01-07T14:54:54;6.90;;;4.00;;
29162;SDS011;20331;53.144;8.208;2024-01-07T15:00:17;7.82;;;4.28;;
29162;SDS011;20331;53.144;8.208;2024-01-07T15:05:39;8.70;;;3.97;;
29162;SDS011;20331;53.144;8.208;2024-01-07T15:11:02;9.27;;;4.28;;
29162;SDS011;20331;53.144;8.208;2024-01-07T15:16:25;7.28;;;4.80;;
29162;SDS011;20331;53.144;8.208;2024-01-07T15:21:47;10.77;;;4.70;;
29162;SDS011;20331;53.144;8.208;2024-01-07T15:27:12;7.83;;;4.70;;
29162;SDS011;20331;53.144;8.208;2024-01-07T15:32:33;8.65;;;5.28;;
29162;SDS011;20331;53.144;8.208;2024-01-07T15:37:55;8.43;;;4.47;;
29162;SDS011;20331;53.144;8.208;2024-01-07T15:43:18;8.05;;;4.40;;
29162;SDS011;20331;53.144;8.208;2024-01-07T15:48:41;7.53;;;3.72;;
29162;SDS011;20331;53.144;8.208;2024-01-07T15:54:04;7.40;;;3.50;;
29162;SDS011;20331;53.144;8.208;2024-01-07T15:59:27;6.28;;;3.42;;
29162;SDS011;20331;53.144;8.208;2024-01-07T16:04:48;7.40;;;3.67;;
29162;SDS011;20331;53.144;8.208;2024-01-07T16:10:11;7.90;;;3.90;;
29162;SDS011;20331;53.144;8.208;2024-01-07T16:15:33;6.22;;;3.22;;
29162;SDS011;20331;53.144;8.208;2024-01-07T16:20:55;4.50;;;3.58;;
29162;SDS011;20331;53.144;8.208;2024-01-07T16:26:16;12.02;;;4.03;;
29162;SDS011;20331;53.144;8.208;2024-01-07T16:31:38;7.22;;;3.90;;
29162;SDS011;20331;53.144;8.208;2024-01-07T16:37:01;10.20;;;3.97;;
29162;SDS011;20331;53.144;8.208;2024-01-07T16:42:23;7.53;;;4.15;;
29162;SDS011;20331;53.144;8.208;2024-01-07T16:47:45;5.22;;;3.90;;
29162;SDS011;20331;53.144;8.208;2024-01-07T16:53:06;7.97;;;3.95;;
29162;SDS011;20331;53.144;8.208;2024-01-07T16:58:28;6.38;;;3.78;;
29162;SDS011;20331;53.144;8.208;2024-01-07T17:03:49;6.47;;;3.85;;
29162;SDS011;20331;53.144;8.208;2024-01-07T17:09:11;5.95;;;3.78;;
29162;SDS011;20331;53.144;8.208;2024-01-07T17:14:33;7.03;;;4.20;;
29162;SDS011;20331;53.144;8.208;2024-01-07T17:19:54;6.28;;;4.03;;
29162;SDS011;20331;53.144;8.208;2024-01-07T17:25:16;9.80;;;4.60;;
29162;SDS011;20331;53.144;8.208;2024-01-07T17:30:38;8.20;;;4.18;;
29162;SDS011;20331;53.144;8.208;2024-01-07T17:36:00;8.55;;;4.15;;
29162;SDS011;20331;53.144;8.208;2024-01-07T17:41:22;6.72;;;3.47;;
29162;SDS011;20331;53.144;8.208;2024-01-07T17:46:44;5.78;;;3.60;;
29162;SDS011;20331;53.144;8.208;2024-01-07T17:52:05;6.10;;;3.85;;
29162;SDS011;20331;53.144;8.208;2024-01-07T17:57:27;9.13;;;4.72;;
29162;SDS011;20331;53.144;8.208;2024-01-07T18:02:51;10.82;;;4.40;;
29162;SDS011;20331;53.144;8.208;2024-01-07T18:08:13;6.55;;;3.78;;
29162;SDS011;20331;53.144;8.208;2024-01-07T18:13:40;8.98;;;4.20;;
29162;SDS011;20331;53.144;8.208;2024-01-07T18:19:03;6.18;;;3.97;;
29162;SDS011;20331;53.144;8.208;2024-01-07T18:24:24;5.63;;;3.33;;
29162;SDS011;20331;53.144;8.208;2024-01-07T18:29:46;5.93;;;3.47;;
29162;SDS011;20331;53.144;8.208;2024-01-07T18:35:08;7.55;;;3.40;;
29162;SDS011;20331;53.144;8.208;2024-01-07T18:40:30;7.53;;;3.58;;
29162;SDS011;20331;53.144;8.208;2024-01-07T18:45:52;3.97;;;3.15;;
29162;SDS011;20331;53.144;8.208;2024-01-07T18:51:13;5.38;;;3.70;;
29162;SDS011;20331;53.144;8.208;2024-01-07T18:56:35;5.22;;;4.15;;
29162;SDS011;20331;53.144;8.208;2024-01-07T19:01:57;6.38;;;3.85;;
29162;SDS011;20331;53.144;8.208;2024-01-07T19:07:21;5.78;;;4.20;;
29162;SDS011;20331;53.144;8.208;2024-01-07T19:12:42;6.60;;;3.67;;
29162;SDS011;20331;53.144;8.208;2024-01-07T19:18:04;6.32;;;4.13;;
29162;SDS011;20331;53.144;8.208;2024-01-07T19:23:26;7.65;;;4.53;;
29162;SDS011;20331;53.144;8.208;2024-01-07T19:28:47;6.50;;;4.30;;
29162;SDS011;20331;53.144;8.208;2024-01-07T19:34:09;10.82;;;4.18;;
29162;SDS011;20331;53.144;8.208;2024-01-07T19:39:31;7.47;;;3.83;;
29162;SDS011;20331;53.144;8.208;2024-01-07T19:45:13;6.53;;;4.10;;
29162;SDS011;20331;53.144;8.208;2024-01-07T19:50:35;7.53;;;4.20;;
29162;SDS011;20331;53.144;8.208;2024-01-07T19:55:57;5.75;;;4.30;;
29162;SDS011;20331;53.144;8.208;2024-01-07T20:01:23;6.95;;;3.95;;
29162;SDS011;20331;53.144;8.208;2024-01-07T20:06:45;5.45;;;4.03;;
29162;SDS011;20331;53.144;8.208;2024-01-07T20:12:06;6.38;;;4.10;;
29162;SDS011;20331;53.144;8.208;2024-01-07T20:17:28;7.38;;;4.40;;
29162;SDS011;20331;53.144;8.208;2024-01-07T20:22:50;9.98;;;4.93;;
29162;SDS011;20331;53.144;8.208;2024-01-07T20:28:11;8.27;;;4.60;;
29162;SDS011;20331;53.144;8.208;2024-01-07T20:33:35;7.78;;;4.50;;
29162;SDS011;20331;53.144;8.208;2024-01-07T20:38:58;5.53;;;3.95;;
29162;SDS011;20331;53.144;8.208;2024-01-07T20:44:20;6.95;;;4.68;;
29162;SDS011;20331;53.144;8.208;2024-01-07T20:49:42;6.65;;;4.43;;
29162;SDS011;20331;53.144;8.208;2024-01-07T20:55:03;7.43;;;4.50;;
29162;SDS011;20331;53.144;8.208;2024-01-07T21:00:25;5.97;;;3.60;;
29162;SDS011;20331;53.144;8.208;2024-01-07T21:05:47;7.55;;;4.43;;
29162;SDS011;20331;53.144;8.208;2024-01-07T21:16:57;6.13;;;4.00;;
29162;SDS011;20331;53.144;8.208;2024-01-07T21:22:21;6.75;;;3.80;;
29162;SDS011;20331;53.144;8.208;2024-01-07T21:27:43;8.10;;;4.38;;
29162;SDS011;20331;53.144;8.208;2024-01-07T21:33:05;7.07;;;4.10;;
29162;SDS011;20331;53.144;8.208;2024-01-07T21:38:27;11.30;;;4.35;;
29162;SDS011;20331;53.144;8.208;2024-01-07T21:43:49;10.55;;;5.22;;
29162;SDS011;20331;53.144;8.208;2024-01-07T21:49:12;10.50;;;5.55;;
29162;SDS011;20331;53.144;8.208;2024-01-07T21:54:35;11.48;;;5.53;;
29162;SDS011;20331;53.144;8.208;2024-01-07T21:59:57;8.80;;;5.40;;
29162;SDS011;20331;53.144;8.208;2024-01-07T22:05:19;10.23;;;5.00;;
29162;SDS011;20331;53.144;8.208;2024-01-07T22:10:41;8.93;;;5.13;;
29162;SDS011;20331;53.144;8.208;2024-01-07T22:16:07;9.10;;;5.18;;
29162;SDS011;20331;53.144;8.208;2024-01-07T22:21:30;6.22;;;4.43;;
29162;SDS011;20331;53.144;8.208;2024-01-07T22:26:52;11.52;;;4.97;;
29162;SDS011;20331;53.144;8.208;2024-01-07T22:32:14;10.02;;;5.38;;
29162;SDS011;20331;53.144;8.208;2024-01-07T22:37:36;11.45;;;5.68;;
29162;SDS011;20331;53.144;8.208;2024-01-07T22:42:58;9.20;;;5.10;;
29162;SDS011;20331;53.144;8.208;2024-01-07T22:48:20;9.27;;;5.40;;
29162;SDS011;20331;53.144;8.208;2024-01-07T22:53:42;8.00;;;4.90;;
29162;SDS011;20331;53.144;8.208;2024-01-07T22:59:05;8.65;;;4.80;;
29162;SDS011;20331;53.144;8.208;2024-01-07T23:04:27;8.23;;;5.22;;
29162;SDS011;20331;53.144;8.208;2024-01-07T23:09:49;11.05;;;5.38;;
29162;SDS011;20331;53.144;8.208;2024-01-07T23:15:10;12.23;;;6.13;;
29162;SDS011;20331;53.144;8.208;2024-01-07T23:20:32;8.90;;;5.60;;
29162;SDS011;20331;53.144;8.208;2024-01-07T23:25:56;8.60;;;5.63;;
29162;SDS011;20331;53.144;8.208;2024-01-07T23:31:17;11.32;;;5.63;;
29162;SDS011;20331;53.144;8.208;2024-01-07T23:36:39;14.02;;;6.20;;
29162;SDS011;20331;53.144;8.208;2024-01-07T23:42:01;10.98;;;6.50;;
29162;SDS011;20331;53.144;8.208;2024-01-07T23:47:23;12.30;;;6.32;;
29162;SDS011;20331;53.144;8.208;2024-01-07T23:52:45;13.02;;;6.60;;
29162;SDS011;20331;53.144;8.208;2024-01-07T23:58:07;13.13;;;6.03;;
